createdAt,value
2022-12-31T00:00:22.771Z,12.48
2022-12-31T00:02:50.137Z,13.38
2022-12-31T00:05:17.617Z,14.00
2022-12-31T00:07:44.924Z,13.13
2022-12-31T00:10:12.166Z,16.23
2022-12-31T00:12:39.501Z,12.75
2022-12-31T00:15:07.537Z,15.80
2022-12-31T00:17:35.230Z,13.98
2022-12-31T00:20:02.728Z,14.23
2022-12-31T00:22:29.986Z,15.07
2022-12-31T00:24:57.396Z,14.88
2022-12-31T00:27:24.664Z,14.95
2022-12-31T00:29:52.005Z,13.52
2022-12-31T00:32:19.669Z,13.18
2022-12-31T00:34:46.950Z,17.13
2022-12-31T00:37:14.239Z,15.18
2022-12-31T00:39:41.561Z,13.80
2022-12-31T00:42:08.822Z,16.52
2022-12-31T00:44:36.061Z,13.23
2022-12-31T00:47:03.444Z,15.60
2022-12-31T00:49:30.737Z,14.43
2022-12-31T00:51:58.054Z,15.13
2022-12-31T00:54:25.423Z,16.23
2022-12-31T00:56:56.098Z,15.25
2022-12-31T00:59:23.398Z,14.38
2022-12-31T01:01:51.306Z,16.23
2022-12-31T01:04:21.020Z,15.48
2022-12-31T01:06:48.362Z,15.05
2022-12-31T01:09:17.075Z,17.10
2022-12-31T01:11:44.734Z,16.05
2022-12-31T01:14:15.366Z,18.05
2022-12-31T01:16:51.350Z,16.42
2022-12-31T01:19:27.801Z,17.13
2022-12-31T01:21:56.532Z,16.05
2022-12-31T01:24:24.147Z,17.30
2022-12-31T01:26:51.741Z,16.90
2022-12-31T01:29:19.053Z,16.27
2022-12-31T01:31:46.436Z,17.10
2022-12-31T01:34:13.736Z,16.08
2022-12-31T01:36:40.936Z,17.40
2022-12-31T01:39:09.783Z,16.67
2022-12-31T01:41:42.718Z,19.35
2022-12-31T01:44:12.875Z,18.88
2022-12-31T01:46:46.178Z,15.50
2022-12-31T01:49:42.781Z,17.88
2022-12-31T01:52:15.565Z,16.95
2022-12-31T01:54:47.169Z,15.35
2022-12-31T01:57:15.760Z,17.38
2022-12-31T01:59:45.250Z,17.42
2022-12-31T02:02:14.499Z,19.30
2022-12-31T02:04:42.103Z,18.77
2022-12-31T02:07:11.385Z,18.02
2022-12-31T02:09:41.141Z,20.42
2022-12-31T02:12:09.735Z,21.35
2022-12-31T02:14:42.267Z,17.40
2022-12-31T02:17:12.326Z,18.27
2022-12-31T02:19:58.223Z,19.15
2022-12-31T02:23:05.656Z,18.98
2022-12-31T02:25:50.989Z,18.83
2022-12-31T02:28:27.323Z,19.63
2022-12-31T02:31:01.995Z,21.58
2022-12-31T02:33:50.016Z,22.27
2022-12-31T02:36:26.419Z,20.30
2022-12-31T02:38:54.931Z,19.88
2022-12-31T02:41:40.871Z,17.48
2022-12-31T02:44:38.224Z,22.08
2022-12-31T02:47:08.388Z,20.15
2022-12-31T02:49:44.456Z,18.60
2022-12-31T02:52:20.655Z,22.02
2022-12-31T02:54:54.373Z,20.77
2022-12-31T02:57:51.002Z,20.20
2022-12-31T03:00:37.003Z,19.92
2022-12-31T03:03:07.993Z,18.63
2022-12-31T03:05:40.342Z,19.00
2022-12-31T03:08:08.078Z,18.52
2022-12-31T03:10:36.353Z,21.63
2022-12-31T03:13:03.981Z,19.92
2022-12-31T03:15:33.353Z,19.40
2022-12-31T03:18:06.286Z,21.48
2022-12-31T03:21:07.014Z,21.25
2022-12-31T03:23:51.919Z,19.70
2022-12-31T03:26:19.411Z,18.90
2022-12-31T03:28:47.859Z,20.38
2022-12-31T03:31:16.476Z,19.08
2022-12-31T03:33:43.860Z,19.98
2022-12-31T03:36:14.874Z,19.80
2022-12-31T03:38:42.172Z,21.60
2022-12-31T03:41:11.188Z,17.67
2022-12-31T03:43:38.579Z,17.88
2022-12-31T03:46:06.480Z,17.73
2022-12-31T03:48:33.885Z,19.08
2022-12-31T03:51:01.251Z,19.38
2022-12-31T03:53:28.502Z,18.15
2022-12-31T03:55:55.835Z,19.30
2022-12-31T03:58:23.328Z,18.27
2022-12-31T04:00:51.121Z,17.90
2022-12-31T04:03:18.626Z,17.35
2022-12-31T04:05:52.727Z,18.95
2022-12-31T04:08:19.933Z,17.60
2022-12-31T04:10:47.826Z,17.42
2022-12-31T04:13:15.066Z,17.30
2022-12-31T04:15:42.341Z,16.48
2022-12-31T04:18:09.695Z,18.15
2022-12-31T04:20:37.040Z,16.67
2022-12-31T04:23:04.569Z,18.48
2022-12-31T04:25:31.974Z,18.23
2022-12-31T04:27:59.349Z,17.23
2022-12-31T04:30:26.642Z,17.20
2022-12-31T04:32:53.820Z,17.20
2022-12-31T04:35:21.090Z,17.80
2022-12-31T04:37:48.341Z,17.15
2022-12-31T04:40:15.697Z,15.70
2022-12-31T04:42:42.985Z,14.65
2022-12-31T04:45:10.666Z,15.23
2022-12-31T04:47:37.927Z,16.23
2022-12-31T04:50:05.780Z,15.35
2022-12-31T04:52:37.158Z,16.08
2022-12-31T04:55:09.699Z,15.23
2022-12-31T04:57:36.959Z,17.80
2022-12-31T05:00:04.711Z,13.25
2022-12-31T05:02:32.033Z,15.20
2022-12-31T05:04:59.521Z,15.40
2022-12-31T05:07:26.824Z,17.67
2022-12-31T05:09:54.107Z,14.65
2022-12-31T05:12:21.396Z,16.58
2022-12-31T05:14:48.648Z,16.17
2022-12-31T05:17:15.917Z,13.88
2022-12-31T05:19:43.189Z,15.65
2022-12-31T05:22:28.933Z,16.42
2022-12-31T05:25:00.941Z,13.45
2022-12-31T05:27:31.279Z,14.95
2022-12-31T05:29:59.758Z,14.88
2022-12-31T05:32:27.266Z,12.90
2022-12-31T05:34:54.666Z,14.57
2022-12-31T05:37:21.912Z,15.23
2022-12-31T05:39:49.312Z,12.25
2022-12-31T05:42:16.689Z,14.48
2022-12-31T05:44:44.039Z,13.43
2022-12-31T05:47:11.340Z,13.23
2022-12-31T05:49:38.682Z,12.43
2022-12-31T05:52:06.793Z,14.50
2022-12-31T05:54:34.077Z,15.07
2022-12-31T05:57:01.337Z,12.95
2022-12-31T05:59:28.680Z,13.75
2022-12-31T06:01:55.976Z,12.55
2022-12-31T06:04:23.898Z,15.30
2022-12-31T06:06:51.233Z,14.00
2022-12-31T06:09:19.573Z,11.30
2022-12-31T06:11:47.410Z,13.90
2022-12-31T06:14:14.960Z,12.80
2022-12-31T06:16:43.275Z,13.27
2022-12-31T06:19:10.585Z,12.40
2022-12-31T06:21:37.936Z,12.75
2022-12-31T06:24:05.521Z,12.43
2022-12-31T06:26:32.816Z,13.15
2022-12-31T06:29:00.119Z,12.07
2022-12-31T06:31:27.400Z,11.27
2022-12-31T06:33:55.134Z,13.20
2022-12-31T06:36:22.502Z,10.90
2022-12-31T06:38:50.752Z,10.45
2022-12-31T06:41:18.752Z,11.95
2022-12-31T06:43:46.113Z,11.35
2022-12-31T06:46:16.143Z,10.02
2022-12-31T06:48:44.975Z,11.25
2022-12-31T06:51:18.167Z,11.77
2022-12-31T06:56:23.401Z,12.35
2022-12-31T06:58:54.245Z,10.90
2022-12-31T07:01:33.384Z,15.75
2022-12-31T07:04:19.251Z,16.40
2022-12-31T07:06:57.339Z,11.82
2022-12-31T07:09:43.045Z,10.15
2022-12-31T07:12:20.905Z,15.07
2022-12-31T07:15:26.663Z,14.85
2022-12-31T07:18:22.734Z,14.02
2022-12-31T07:20:50.292Z,14.30
2022-12-31T07:23:17.875Z,17.23
2022-12-31T07:25:56.170Z,13.18
2022-12-31T07:29:17.203Z,14.07
2022-12-31T07:32:01.144Z,14.25
2022-12-31T07:34:39.932Z,12.90
2022-12-31T07:37:36.036Z,9.98
2022-12-31T07:40:14.245Z,12.45
2022-12-31T07:43:14.010Z,11.85
2022-12-31T07:45:48.563Z,10.90
2022-12-31T07:48:25.254Z,11.25
2022-12-31T07:50:54.835Z,12.43
2022-12-31T07:53:25.685Z,9.27
2022-12-31T07:56:01.956Z,11.02
2022-12-31T07:58:50.223Z,11.07
2022-12-31T08:01:30.642Z,10.98
2022-12-31T08:04:24.274Z,10.00
2022-12-31T08:07:11.663Z,9.82
2022-12-31T08:09:47.866Z,11.30
2022-12-31T08:12:15.727Z,10.68
2022-12-31T08:14:46.272Z,10.40
2022-12-31T08:17:15.931Z,9.10
2022-12-31T08:19:43.528Z,12.73
2022-12-31T08:22:30.103Z,9.10
2022-12-31T08:25:34.797Z,11.20
2022-12-31T08:28:37.217Z,10.00
2022-12-31T08:31:10.788Z,10.57
2022-12-31T08:34:05.565Z,10.35
2022-12-31T08:36:45.303Z,11.10
2022-12-31T08:39:34.858Z,11.60
2022-12-31T08:42:05.111Z,12.27
2022-12-31T08:45:13.136Z,9.60
2022-12-31T08:47:59.519Z,8.25
2022-12-31T08:50:28.037Z,8.98
2022-12-31T08:52:55.886Z,9.40
2022-12-31T08:55:23.488Z,9.23
2022-12-31T08:58:18.125Z,8.82
2022-12-31T09:00:46.599Z,8.52
2022-12-31T09:03:45.039Z,8.25
2022-12-31T09:06:34.002Z,7.63
2022-12-31T09:09:10.271Z,8.60
2022-12-31T09:11:46.771Z,8.32
2022-12-31T09:14:35.604Z,8.15
2022-12-31T09:17:32.174Z,7.90
2022-12-31T09:19:59.679Z,7.45
2022-12-31T09:22:27.297Z,8.68
2022-12-31T09:24:54.852Z,7.88
2022-12-31T09:27:28.335Z,7.90
2022-12-31T09:30:16.313Z,9.05
2022-12-31T09:33:07.293Z,9.02
2022-12-31T09:35:56.795Z,7.82
2022-12-31T09:38:35.839Z,8.40
2022-12-31T09:41:32.222Z,7.47
2022-12-31T09:44:24.532Z,7.88
2022-12-31T09:47:19.416Z,7.40
2022-12-31T09:50:08.452Z,8.18
2022-12-31T09:52:56.004Z,7.25
2022-12-31T09:55:54.164Z,7.97
2022-12-31T09:58:52.290Z,7.78
2022-12-31T10:01:37.721Z,7.07
2022-12-31T10:04:23.499Z,7.90
2022-12-31T10:07:13.447Z,8.00
2022-12-31T10:09:59.054Z,7.78
2022-12-31T10:13:03.692Z,9.02
2022-12-31T10:16:15.543Z,7.38
2022-12-31T10:19:33.893Z,10.25
2022-12-31T10:22:16.187Z,8.13
2022-12-31T10:24:53.168Z,9.68
2022-12-31T10:27:39.686Z,8.02
2022-12-31T10:30:17.701Z,8.90
2022-12-31T10:32:54.289Z,11.18
2022-12-31T10:35:53.373Z,9.50
2022-12-31T10:38:39.279Z,8.68
2022-12-31T10:41:28.209Z,11.57
2022-12-31T10:44:07.235Z,9.98
2022-12-31T10:46:56.044Z,11.98
2022-12-31T10:50:12.267Z,9.88
2022-12-31T10:53:24.205Z,8.77
2022-12-31T10:56:15.803Z,9.45
2022-12-31T10:59:21.406Z,18.70
2022-12-31T11:02:15.794Z,15.85
2022-12-31T11:05:05.026Z,14.50
2022-12-31T11:07:35.363Z,15.00
2022-12-31T11:10:29.710Z,11.25
2022-12-31T11:13:34.826Z,10.88
2022-12-31T11:16:20.744Z,12.00
2022-12-31T11:18:57.245Z,17.45
2022-12-31T11:21:30.398Z,16.88
2022-12-31T11:24:18.479Z,16.15
2022-12-31T11:27:14.762Z,13.90
2022-12-31T11:30:04.591Z,9.80
2022-12-31T11:32:48.367Z,11.93
2022-12-31T11:35:18.526Z,11.70
2022-12-31T11:37:58.559Z,12.63
2022-12-31T11:40:28.759Z,14.13
2022-12-31T11:43:01.172Z,11.77
2022-12-31T11:45:57.905Z,9.48
2022-12-31T11:48:47.349Z,9.40
2022-12-31T11:51:51.042Z,9.70
2022-12-31T11:54:27.158Z,13.25
2022-12-31T11:57:23.183Z,11.10
2022-12-31T12:00:04.545Z,9.25
2022-12-31T12:02:45.558Z,10.35
2022-12-31T12:05:20.340Z,11.70
2022-12-31T12:07:49.183Z,10.27
2022-12-31T12:10:35.608Z,9.95
2022-12-31T12:13:28.592Z,11.13
2022-12-31T12:15:59.376Z,9.77
2022-12-31T12:18:50.867Z,8.93
2022-12-31T12:21:23.880Z,9.82
2022-12-31T12:26:29.814Z,12.68
2022-12-31T12:29:01.488Z,8.93
2022-12-31T12:31:28.856Z,9.82
2022-12-31T12:33:56.247Z,8.25
2022-12-31T12:36:23.569Z,9.93
2022-12-31T12:39:07.142Z,11.68
2022-12-31T12:41:34.567Z,13.45
2022-12-31T12:44:06.192Z,7.40
2022-12-31T12:46:39.486Z,8.05
2022-12-31T12:49:28.951Z,6.32
2022-12-31T12:52:27.218Z,8.27
2022-12-31T12:55:04.233Z,7.47
2022-12-31T12:57:58.625Z,8.75
2022-12-31T13:00:51.437Z,9.93
2022-12-31T13:03:21.872Z,8.50
2022-12-31T13:05:55.991Z,8.32
2022-12-31T13:08:35.117Z,8.73
2022-12-31T13:11:37.240Z,8.93
2022-12-31T13:14:28.990Z,8.35
2022-12-31T13:17:25.300Z,10.52
2022-12-31T13:19:55.508Z,8.73
2022-12-31T13:22:40.786Z,7.35
2022-12-31T13:25:34.410Z,8.82
2022-12-31T13:28:08.727Z,10.60
2022-12-31T13:30:49.498Z,11.43
2022-12-31T13:33:26.327Z,9.07
2022-12-31T13:36:08.943Z,9.60
2022-12-31T13:38:40.478Z,9.50
2022-12-31T13:41:34.380Z,9.27
2022-12-31T13:44:27.406Z,10.00
2022-12-31T13:47:13.769Z,9.82
2022-12-31T13:49:49.779Z,11.15
2022-12-31T13:52:41.566Z,13.55
2022-12-31T13:55:44.832Z,10.95
2022-12-31T13:58:53.164Z,8.52
2022-12-31T14:01:25.390Z,10.32
2022-12-31T14:04:04.671Z,9.50
2022-12-31T14:06:38.908Z,10.48
2022-12-31T14:09:06.777Z,11.10
2022-12-31T14:11:45.962Z,11.02
2022-12-31T14:14:31.599Z,11.90
2022-12-31T14:17:07.618Z,8.90
2022-12-31T14:19:56.131Z,15.85
2022-12-31T14:22:36.167Z,21.33
2022-12-31T14:25:14.399Z,15.02
2022-12-31T14:27:44.598Z,12.23
2022-12-31T14:30:22.062Z,12.15
2022-12-31T14:33:04.596Z,12.30
2022-12-31T14:35:34.933Z,12.77
2022-12-31T14:38:19.403Z,12.98
2022-12-31T14:41:26.659Z,11.55
2022-12-31T14:44:20.396Z,12.63
2022-12-31T14:47:00.631Z,13.15
2022-12-31T14:49:39.271Z,12.32
2022-12-31T14:52:09.518Z,15.18
2022-12-31T14:54:38.208Z,11.82
2022-12-31T14:57:18.168Z,10.40
2022-12-31T15:00:13.217Z,10.10
2022-12-31T15:02:53.582Z,10.70
2022-12-31T15:05:24.081Z,10.55
2022-12-31T15:08:25.229Z,12.02
2022-12-31T15:11:36.897Z,23.55
2022-12-31T15:14:25.561Z,43.55
2022-12-31T15:17:31.008Z,31.98
2022-12-31T15:20:32.614Z,27.65
2022-12-31T15:23:00.156Z,26.08
2022-12-31T15:25:33.881Z,26.95
2022-12-31T15:28:07.049Z,27.33
2022-12-31T15:30:45.209Z,24.52
2022-12-31T15:33:30.844Z,25.83
2022-12-31T15:36:10.641Z,25.80
2022-12-31T15:38:39.602Z,24.98
2022-12-31T15:41:42.939Z,28.20
2022-12-31T15:44:49.361Z,21.23
2022-12-31T15:47:19.556Z,22.63
2022-12-31T15:49:47.700Z,22.73
2022-12-31T15:52:25.567Z,22.48
2022-12-31T15:54:56.168Z,27.35
2022-12-31T15:57:37.752Z,21.85
2022-12-31T16:00:09.404Z,27.85
2022-12-31T16:02:43.072Z,30.00
2022-12-31T16:05:25.966Z,25.88
2022-12-31T16:07:58.516Z,28.38
2022-12-31T16:10:33.405Z,25.58
2022-12-31T16:13:00.999Z,26.00
2022-12-31T16:15:31.565Z,27.08
2022-12-31T16:18:09.903Z,26.00
2022-12-31T16:20:43.271Z,25.95
2022-12-31T16:23:23.585Z,27.77
2022-12-31T16:25:54.614Z,27.73
2022-12-31T16:28:30.640Z,25.17
2022-12-31T16:31:01.983Z,28.90
2022-12-31T16:33:31.203Z,28.20
2022-12-31T16:36:01.694Z,28.67
2022-12-31T16:38:34.854Z,28.02
2022-12-31T16:43:37.374Z,26.08
2022-12-31T16:46:27.604Z,27.55
2022-12-31T16:49:15.782Z,29.27
2022-12-31T16:51:44.743Z,29.40
2022-12-31T16:54:43.905Z,28.17
2022-12-31T16:57:21.481Z,27.60
2022-12-31T16:59:54.622Z,30.05
2022-12-31T17:02:38.818Z,31.42
2022-12-31T17:05:22.074Z,28.90
2022-12-31T17:07:49.665Z,29.50
2022-12-31T17:10:24.256Z,31.10
2022-12-31T17:13:28.305Z,29.98
2022-12-31T17:15:47.835Z,32.67
2022-12-31T17:18:24.183Z,33.25
2022-12-31T17:20:53.452Z,31.15
2022-12-31T17:23:28.294Z,29.10
2022-12-31T17:26:07.625Z,34.05
2022-12-31T17:28:46.986Z,32.85
2022-12-31T17:32:00.062Z,35.10
2022-12-31T17:34:33.958Z,34.15
2022-12-31T17:37:03.423Z,34.60
2022-12-31T17:39:44.483Z,33.80
2022-12-31T17:42:13.831Z,35.50
2022-12-31T17:44:43.745Z,35.42
2022-12-31T17:47:14.127Z,31.58
2022-12-31T17:49:44.998Z,34.47
2022-12-31T17:52:14.397Z,30.35
2022-12-31T17:54:42.438Z,32.85
2022-12-31T17:57:26.209Z,31.83
2022-12-31T17:59:54.089Z,29.88
2022-12-31T18:02:21.508Z,32.38
2022-12-31T18:04:48.780Z,31.00
2022-12-31T18:07:16.014Z,29.00
2022-12-31T18:09:43.194Z,30.58
2022-12-31T18:12:12.549Z,29.23
2022-12-31T18:14:41.030Z,27.67
2022-12-31T18:17:15.247Z,27.13
2022-12-31T18:22:30.376Z,30.02
2022-12-31T18:24:57.613Z,30.27
2022-12-31T18:27:25.021Z,30.30
2022-12-31T18:29:52.292Z,26.52
2022-12-31T18:32:28.370Z,26.10
2022-12-31T18:34:55.636Z,27.60
2022-12-31T18:37:23.095Z,28.05
2022-12-31T18:39:50.427Z,29.17
2022-12-31T18:42:19.205Z,26.83
2022-12-31T18:44:46.884Z,27.50
2022-12-31T18:47:16.862Z,25.45
2022-12-31T18:49:48.743Z,28.83
2022-12-31T18:52:18.500Z,24.33
2022-12-31T18:54:46.246Z,28.02
2022-12-31T18:57:15.478Z,28.75
2022-12-31T18:59:42.895Z,29.23
2022-12-31T19:02:18.006Z,25.17
2022-12-31T19:04:46.035Z,28.20
2022-12-31T19:07:13.425Z,28.08
2022-12-31T19:09:45.587Z,26.85
2022-12-31T19:12:14.621Z,26.08
2022-12-31T19:14:41.989Z,26.70
2022-12-31T19:19:35.493Z,29.70
2022-12-31T19:22:02.984Z,23.67
2022-12-31T19:24:30.556Z,25.60
2022-12-31T19:26:57.804Z,25.83
2022-12-31T19:29:27.206Z,25.63
2022-12-31T19:31:54.967Z,27.10
2022-12-31T19:34:22.296Z,24.10
2022-12-31T19:36:49.661Z,25.73
2022-12-31T19:39:20.240Z,23.88
2022-12-31T19:41:54.623Z,26.63
2022-12-31T19:44:23.683Z,23.73
2022-12-31T19:46:51.032Z,25.17
2022-12-31T19:49:18.367Z,24.13
2022-12-31T19:51:45.683Z,22.42
2022-12-31T19:54:13.507Z,27.15
2022-12-31T19:56:40.923Z,26.48
2022-12-31T19:59:10.281Z,24.52
2022-12-31T20:01:37.931Z,22.98
2022-12-31T20:04:05.614Z,23.95
2022-12-31T20:06:32.983Z,26.83
2022-12-31T20:09:00.252Z,23.92
2022-12-31T20:11:27.591Z,24.15
2022-12-31T20:13:54.913Z,23.55
2022-12-31T20:16:26.884Z,23.70
2022-12-31T20:18:54.669Z,24.43
2022-12-31T20:21:25.129Z,27.35
2022-12-31T20:23:54.023Z,25.90
2022-12-31T20:26:23.472Z,30.05
2022-12-31T20:28:52.111Z,27.42
2022-12-31T20:31:23.449Z,28.73
2022-12-31T20:33:51.276Z,30.73
2022-12-31T20:36:18.625Z,24.13
2022-12-31T20:38:46.524Z,30.15
2022-12-31T20:41:19.184Z,28.75
2022-12-31T20:43:46.877Z,28.25
2022-12-31T20:46:22.882Z,30.30
2022-12-31T20:48:52.265Z,26.25
2022-12-31T20:51:20.865Z,28.33
2022-12-31T20:53:59.690Z,28.08
2022-12-31T20:56:29.426Z,28.25
2022-12-31T20:58:57.298Z,28.55
2022-12-31T21:01:25.591Z,25.40
2022-12-31T21:04:09.647Z,27.45
2022-12-31T21:06:37.171Z,29.67
2022-12-31T21:09:07.431Z,25.10
2022-12-31T21:11:53.612Z,27.67
2022-12-31T21:14:21.568Z,25.38
2022-12-31T21:16:48.907Z,25.95
2022-12-31T21:19:16.233Z,27.48
2022-12-31T21:21:43.531Z,25.98
2022-12-31T21:24:11.231Z,24.00
2022-12-31T21:26:38.553Z,25.23
2022-12-31T21:29:06.023Z,25.27
2022-12-31T21:31:33.499Z,25.92
2022-12-31T21:34:00.940Z,26.77
2022-12-31T21:36:28.350Z,29.33
2022-12-31T21:38:55.838Z,28.40
2022-12-31T21:41:42.028Z,27.10
2022-12-31T21:44:09.625Z,27.52
2022-12-31T21:46:37.128Z,29.02
2022-12-31T21:49:04.519Z,28.45
2022-12-31T21:51:31.961Z,28.98
2022-12-31T21:53:59.366Z,27.08
2022-12-31T21:56:26.949Z,28.33
2022-12-31T21:59:15.141Z,24.80
2022-12-31T22:02:01.615Z,28.13
2022-12-31T22:05:01.375Z,27.42
2022-12-31T22:07:17.069Z,25.02
2022-12-31T22:09:44.425Z,28.83
2022-12-31T22:12:12.008Z,24.98
2022-12-31T22:14:39.450Z,26.75
2022-12-31T22:17:26.767Z,24.15
2022-12-31T22:20:25.321Z,24.83
2022-12-31T22:22:41.339Z,28.25
2022-12-31T22:25:09.144Z,24.42
2022-12-31T22:27:36.382Z,28.50
2022-12-31T22:30:04.535Z,26.30
2022-12-31T22:32:31.815Z,26.45
2022-12-31T22:34:59.133Z,27.17
2022-12-31T22:40:13.820Z,25.70
2022-12-31T22:42:41.475Z,24.95
2022-12-31T22:45:09.459Z,25.50
2022-12-31T22:47:36.769Z,26.45
2022-12-31T22:50:04.546Z,25.33
2022-12-31T22:52:31.906Z,26.35
2022-12-31T22:54:59.152Z,27.90
2022-12-31T22:57:26.501Z,26.00
2022-12-31T22:59:53.703Z,25.73
2022-12-31T23:02:21.037Z,27.92
2022-12-31T23:04:48.388Z,28.42
2022-12-31T23:07:15.696Z,30.58
2022-12-31T23:10:01.348Z,28.48
2022-12-31T23:12:28.975Z,25.20
2022-12-31T23:15:14.952Z,27.17
2022-12-31T23:18:00.944Z,28.65
2022-12-31T23:20:46.768Z,30.40
2022-12-31T23:23:16.196Z,29.55
2022-12-31T23:25:46.665Z,29.95
2022-12-31T23:28:16.768Z,29.60
2022-12-31T23:30:44.330Z,28.52
2022-12-31T23:33:17.611Z,28.75
2022-12-31T23:35:45.175Z,28.92
2022-12-31T23:38:13.399Z,30.67
2022-12-31T23:40:40.750Z,32.88
2022-12-31T23:43:10.227Z,36.70
2022-12-31T23:45:37.723Z,31.15
2022-12-31T23:48:05.218Z,33.92
2022-12-31T23:50:32.534Z,38.53
2022-12-31T23:52:59.912Z,39.47
2022-12-31T23:55:27.231Z,39.70
2022-12-31T23:57:55.173Z,34.47
